Archival Weather

Half Moon Bay

Half Moon Bay, California (KHAF)

Report from: Tuesday, September 19, 2023 10:15 AM PDT
Current time: Tuesday, July 16, 2024 2:24 AM PDT

Current weather – Weather history – Daily summaries
Weather forecast

Present weatherMist
Temperature17.0°C (62.6°F)
Dew point15.0°C (59.0°F)
Winds 4 kts (2.1 m/s, 4.6 mph) Vrb
Winds variableWinds variable
Visibility5 mi. (8 km)
Clouds Ceiling: Overcast 2,000 ft. (610 m)
Altimeter30.00 in.Hg (1016 mB)
Relative humidity88 %
Density altitude381 ft. (116 m)
Remarks Fully automated report
Automated weather observing station with precipitation discriminator
Flight conditions Marginal Visual Meteorological Conditions
Raw dataKHAF 191715Z AUTO VRB04KT 5SM BR OVC020 17/15 A3000 RMK AO2
An error has occurred. This application may no longer respond until reloaded. Reload 🗙